createdAt,value
2023-01-31T00:01:29.160Z,1.95
2023-01-31T00:03:58.547Z,1.92
2023-01-31T00:06:28.767Z,1.91
2023-01-31T00:08:57.271Z,1.94
2023-01-31T00:11:28.412Z,1.91
2023-01-31T00:13:56.754Z,1.87
2023-01-31T00:16:24.682Z,1.84
2023-01-31T00:18:52.678Z,1.87
2023-01-31T00:21:23.803Z,1.85
2023-01-31T00:23:54.602Z,1.87
2023-01-31T00:26:24.239Z,1.91
2023-01-31T00:28:53.580Z,1.88
2023-01-31T00:31:23.238Z,1.87
2023-01-31T00:33:52.478Z,1.86
2023-01-31T00:36:21.807Z,1.86
2023-01-31T00:38:50.308Z,1.85
2023-01-31T00:41:21.263Z,1.83
2023-01-31T00:43:48.986Z,1.84
2023-01-31T00:46:17.170Z,1.81
2023-01-31T00:48:44.839Z,1.83
2023-01-31T00:51:12.589Z,1.82
2023-01-31T00:53:40.465Z,1.78
2023-01-31T00:56:10.362Z,1.84
2023-01-31T00:58:40.499Z,1.81
2023-01-31T01:01:09.170Z,1.79
2023-01-31T01:03:38.305Z,1.72
2023-01-31T01:06:07.280Z,1.78
2023-01-31T01:08:36.386Z,1.78
2023-01-31T01:11:08.809Z,1.76
2023-01-31T01:13:37.241Z,1.78
2023-01-31T01:16:07.529Z,1.74
2023-01-31T01:18:36.277Z,1.80
2023-01-31T01:21:11.766Z,1.79
2023-01-31T01:23:39.543Z,1.75
2023-01-31T01:26:13.889Z,1.71
2023-01-31T01:28:41.590Z,1.71
2023-01-31T01:31:16.381Z,1.70
2023-01-31T01:33:44.967Z,1.68
2023-01-31T01:36:17.261Z,1.70
2023-01-31T01:38:45.590Z,1.65
2023-01-31T01:41:14.365Z,1.71
2023-01-31T01:43:46.757Z,1.72
2023-01-31T01:46:18.747Z,1.73
2023-01-31T01:48:49.505Z,1.71
2023-01-31T01:51:19.406Z,1.70
2023-01-31T01:53:50.481Z,1.69
2023-01-31T01:56:24.808Z,1.71
2023-01-31T01:58:58.476Z,1.67
2023-01-31T02:01:31.199Z,1.69
2023-01-31T02:03:59.277Z,1.64
2023-01-31T02:06:26.965Z,1.65
2023-01-31T02:08:55.952Z,1.64
2023-01-31T02:11:26.347Z,1.63
2023-01-31T02:13:59.881Z,1.64
2023-01-31T02:16:29.331Z,1.68
2023-01-31T02:18:58.067Z,1.62
2023-01-31T02:21:55.067Z,1.57
2023-01-31T02:24:55.882Z,1.52
2023-01-31T02:27:46.368Z,1.53
2023-01-31T02:30:43.612Z,1.55
2023-01-31T02:33:22.850Z,1.52
2023-01-31T02:36:05.434Z,1.52
2023-01-31T02:38:45.985Z,1.51
2023-01-31T02:41:20.361Z,1.51
2023-01-31T02:44:12.362Z,1.49
2023-01-31T02:46:52.733Z,1.49
2023-01-31T02:49:35.462Z,1.51
2023-01-31T02:52:18.194Z,1.52
2023-01-31T02:55:20.369Z,1.45
2023-01-31T02:57:52.236Z,1.39
2023-01-31T03:00:21.905Z,1.41
2023-01-31T03:02:49.757Z,1.45
2023-01-31T03:05:20.491Z,1.41
2023-01-31T03:07:51.046Z,1.45
2023-01-31T03:10:43.881Z,1.47
2023-01-31T03:13:34.862Z,1.44
2023-01-31T03:16:31.342Z,1.42
2023-01-31T03:19:13.519Z,1.45
2023-01-31T03:21:47.219Z,1.47
2023-01-31T03:24:18.213Z,1.44
2023-01-31T03:26:47.041Z,1.42
2023-01-31T03:29:17.598Z,1.46
2023-01-31T03:31:49.955Z,1.36
2023-01-31T03:34:18.613Z,1.29
2023-01-31T03:36:55.455Z,1.27
2023-01-31T03:39:33.167Z,1.28
2023-01-31T03:42:07.482Z,1.28
2023-01-31T03:44:43.068Z,1.26
2023-01-31T03:47:16.812Z,1.21
2023-01-31T03:49:46.360Z,1.13
2023-01-31T03:52:23.212Z,1.08
2023-01-31T03:54:56.865Z,0.96
2023-01-31T03:57:29.995Z,0.98
2023-01-31T04:00:01.499Z,0.97
2023-01-31T04:02:34.289Z,0.92
2023-01-31T04:05:08.040Z,0.80
2023-01-31T04:07:38.177Z,0.71
2023-01-31T04:10:12.128Z,0.66
2023-01-31T04:12:39.929Z,0.64
2023-01-31T04:15:08.956Z,0.65
2023-01-31T04:17:36.883Z,0.63
2023-01-31T04:20:05.909Z,0.69
2023-01-31T04:22:34.283Z,0.68
2023-01-31T04:25:03.310Z,0.70
2023-01-31T04:27:31.021Z,0.75
2023-01-31T04:29:58.699Z,0.76
2023-01-31T04:32:26.387Z,0.79
2023-01-31T04:34:54.093Z,0.88
2023-01-31T04:37:21.897Z,0.83
2023-01-31T04:39:49.534Z,0.84
2023-01-31T04:42:18.833Z,0.86
2023-01-31T04:44:46.486Z,0.84
2023-01-31T04:47:14.165Z,0.82
2023-01-31T04:49:41.858Z,0.87
2023-01-31T04:52:10.521Z,0.91
2023-01-31T04:54:38.256Z,0.88
2023-01-31T04:57:05.932Z,0.90
2023-01-31T04:59:37.024Z,0.90
2023-01-31T05:02:04.690Z,0.88
2023-01-31T05:04:32.745Z,0.92
2023-01-31T05:07:00.530Z,0.91
2023-01-31T05:09:28.201Z,0.89
2023-01-31T05:11:55.874Z,0.86
2023-01-31T05:14:23.581Z,0.79
2023-01-31T05:16:52.589Z,0.84
2023-01-31T05:19:20.227Z,0.81
2023-01-31T05:21:58.287Z,0.84
2023-01-31T05:24:27.871Z,0.80
2023-01-31T05:26:58.648Z,0.84
2023-01-31T05:29:27.039Z,0.83
2023-01-31T05:31:57.958Z,0.84
2023-01-31T05:34:26.611Z,0.75
2023-01-31T05:36:54.260Z,0.75
2023-01-31T05:39:22.366Z,0.71
2023-01-31T05:41:50.091Z,0.67
2023-01-31T05:44:17.797Z,0.67
2023-01-31T05:46:46.160Z,0.70
2023-01-31T05:49:15.627Z,0.74
2023-01-31T05:51:43.585Z,0.70
2023-01-31T05:54:12.128Z,0.70
2023-01-31T05:56:40.114Z,0.68
2023-01-31T05:59:07.796Z,0.65
2023-01-31T06:01:35.463Z,0.65
2023-01-31T06:04:03.170Z,0.66
2023-01-31T06:06:32.204Z,0.65
2023-01-31T06:09:00.252Z,0.74
2023-01-31T06:11:27.965Z,0.75
2023-01-31T06:13:57.726Z,0.72
2023-01-31T06:16:26.395Z,0.74
2023-01-31T06:18:55.628Z,0.77
2023-01-31T06:21:23.263Z,0.76
2023-01-31T06:23:52.308Z,0.82
2023-01-31T06:26:20.081Z,0.77
2023-01-31T06:28:47.748Z,0.77
2023-01-31T06:31:15.769Z,0.80
2023-01-31T06:33:47.278Z,0.79
2023-01-31T06:36:18.689Z,0.82
2023-01-31T06:38:51.975Z,0.80
2023-01-31T06:41:20.036Z,0.80
2023-01-31T06:43:47.698Z,0.78
2023-01-31T06:46:15.499Z,0.82
2023-01-31T06:48:43.748Z,0.82
2023-01-31T06:51:11.595Z,0.80
2023-01-31T06:53:39.264Z,0.80
2023-01-31T06:56:09.360Z,0.80
2023-01-31T06:58:37.087Z,0.80
2023-01-31T07:01:08.681Z,0.77
2023-01-31T07:03:36.443Z,0.70
2023-01-31T07:06:04.918Z,0.67
2023-01-31T07:08:35.364Z,0.55
2023-01-31T07:11:04.018Z,0.53
2023-01-31T07:13:33.336Z,0.51
2023-01-31T07:16:01.101Z,0.54
2023-01-31T07:18:28.808Z,0.54
2023-01-31T07:20:56.612Z,0.58
2023-01-31T07:23:24.241Z,0.58
2023-01-31T07:25:51.948Z,0.61
2023-01-31T07:28:19.649Z,0.63
2023-01-31T07:30:48.761Z,0.69
2023-01-31T07:33:17.759Z,0.82
2023-01-31T07:35:45.531Z,0.83
2023-01-31T07:38:13.299Z,0.92
2023-01-31T07:40:41.109Z,0.98
2023-01-31T07:43:08.926Z,1.06
2023-01-31T07:45:36.951Z,1.12
2023-01-31T07:48:07.468Z,1.11
2023-01-31T07:50:35.166Z,1.07
2023-01-31T07:53:02.863Z,1.07
2023-01-31T07:55:30.790Z,0.99
2023-01-31T07:57:58.480Z,1.01
2023-01-31T08:00:44.237Z,0.95
2023-01-31T08:03:34.418Z,0.96
2023-01-31T08:06:04.755Z,0.99
2023-01-31T08:08:32.776Z,0.98
2023-01-31T08:11:00.609Z,1.05
2023-01-31T08:13:32.928Z,1.12
2023-01-31T08:16:00.703Z,1.16
2023-01-31T08:18:29.792Z,1.18
2023-01-31T08:20:58.017Z,1.20
2023-01-31T08:23:25.733Z,1.17
2023-01-31T08:25:53.480Z,1.24
2023-01-31T08:28:21.216Z,1.30
2023-01-31T08:31:02.746Z,1.31
2023-01-31T08:33:37.978Z,1.42
2023-01-31T08:36:13.460Z,1.40
2023-01-31T08:38:41.156Z,1.49
2023-01-31T08:41:09.145Z,1.55
2023-01-31T08:43:53.809Z,1.58
2023-01-31T08:46:23.862Z,1.62
2023-01-31T08:48:52.989Z,1.64
2023-01-31T08:51:20.684Z,1.69
2023-01-31T08:53:48.532Z,1.84
2023-01-31T08:56:16.910Z,1.89
2023-01-31T08:58:45.631Z,1.96
2023-01-31T09:01:15.127Z,2.01
2023-01-31T09:03:45.200Z,2.18
2023-01-31T09:06:17.260Z,2.23
2023-01-31T09:08:45.022Z,2.33
2023-01-31T09:11:17.113Z,2.43
2023-01-31T09:13:44.985Z,2.51
2023-01-31T09:16:14.952Z,2.57
2023-01-31T09:18:43.560Z,2.67
2023-01-31T09:21:15.185Z,2.71
2023-01-31T09:23:43.491Z,2.73
2023-01-31T09:26:12.292Z,2.81
2023-01-31T09:28:42.688Z,2.69
2023-01-31T09:31:12.430Z,2.67
2023-01-31T09:33:40.165Z,2.57
2023-01-31T09:36:10.507Z,2.66
2023-01-31T09:38:40.202Z,2.89
2023-01-31T09:41:20.646Z,2.97
2023-01-31T09:43:53.197Z,2.87
2023-01-31T09:46:25.188Z,2.93
2023-01-31T09:48:56.410Z,3.00
2023-01-31T09:51:27.259Z,3.21
2023-01-31T09:53:57.679Z,2.88
2023-01-31T09:56:33.224Z,2.99
2023-01-31T09:59:05.594Z,3.30
2023-01-31T10:01:43.767Z,3.89
2023-01-31T10:04:25.346Z,3.84
2023-01-31T10:06:59.889Z,3.32
2023-01-31T10:09:34.819Z,3.19
2023-01-31T10:12:11.108Z,3.84
2023-01-31T10:14:46.930Z,4.15
2023-01-31T10:17:18.961Z,3.80
2023-01-31T10:19:50.702Z,3.81
2023-01-31T10:22:24.123Z,3.89
2023-01-31T10:24:59.342Z,4.08
2023-01-31T10:27:41.619Z,3.73
2023-01-31T10:30:19.063Z,3.96
2023-01-31T10:32:52.331Z,4.59
2023-01-31T10:35:24.544Z,4.37
2023-01-31T10:37:57.084Z,4.08
2023-01-31T10:40:33.647Z,3.73
2023-01-31T10:43:10.937Z,3.78
2023-01-31T10:45:38.781Z,3.92
2023-01-31T10:48:16.665Z,3.90
2023-01-31T10:50:57.551Z,3.58
2023-01-31T10:53:46.206Z,3.65
2023-01-31T10:56:25.498Z,3.50
2023-01-31T10:58:53.416Z,3.56
2023-01-31T11:01:21.282Z,3.47
2023-01-31T11:03:51.595Z,3.42
2023-01-31T11:06:21.230Z,3.28
2023-01-31T11:08:51.812Z,3.27
2023-01-31T11:11:22.685Z,2.98
2023-01-31T11:14:01.139Z,3.08
2023-01-31T11:16:31.990Z,3.11
2023-01-31T11:19:02.590Z,3.02
2023-01-31T11:21:32.534Z,2.91
2023-01-31T11:24:04.899Z,2.94
2023-01-31T11:26:37.706Z,2.73
2023-01-31T11:29:11.767Z,2.84
2023-01-31T11:31:45.637Z,2.86
2023-01-31T11:34:22.164Z,3.00
2023-01-31T11:36:49.931Z,3.09
2023-01-31T11:39:31.388Z,3.12
2023-01-31T11:42:07.049Z,3.14
2023-01-31T11:44:34.896Z,3.29
2023-01-31T11:47:05.909Z,3.20
2023-01-31T11:49:36.492Z,3.28
2023-01-31T11:52:14.548Z,3.21
2023-01-31T11:54:47.555Z,3.28
2023-01-31T11:57:18.129Z,3.47
2023-01-31T11:59:45.925Z,3.52
2023-01-31T12:02:27.372Z,3.44
2023-01-31T12:04:55.882Z,3.34
2023-01-31T12:07:25.711Z,3.47
2023-01-31T12:09:53.668Z,3.22
2023-01-31T12:12:31.280Z,3.31
2023-01-31T12:15:03.454Z,3.34
2023-01-31T12:17:34.873Z,3.48
2023-01-31T12:20:28.625Z,3.43
2023-01-31T12:23:08.278Z,3.55
2023-01-31T12:25:49.635Z,3.38
2023-01-31T12:28:32.297Z,3.33
2023-01-31T12:31:19.935Z,3.44
2023-01-31T12:34:02.423Z,3.64
2023-01-31T12:36:46.510Z,3.79
2023-01-31T12:39:25.564Z,3.98
2023-01-31T12:42:05.948Z,4.01
2023-01-31T12:44:44.995Z,3.97
2023-01-31T12:47:39.233Z,3.75
2023-01-31T12:50:20.576Z,3.58
2023-01-31T12:53:04.374Z,3.46
2023-01-31T12:55:40.734Z,3.29
2023-01-31T12:58:29.784Z,3.42
2023-01-31T13:01:03.160Z,3.65
2023-01-31T13:03:49.569Z,3.77
2023-01-31T13:06:24.143Z,4.02
2023-01-31T13:09:07.801Z,4.19
2023-01-31T13:11:40.827Z,4.11
2023-01-31T13:14:15.491Z,4.26
2023-01-31T13:16:47.319Z,4.36
2023-01-31T13:19:20.842Z,4.54
2023-01-31T13:21:52.903Z,4.78
2023-01-31T13:24:24.714Z,4.84
2023-01-31T13:26:57.711Z,4.82
2023-01-31T13:29:30.847Z,4.88
2023-01-31T13:32:03.399Z,4.62
2023-01-31T13:34:38.713Z,4.25
2023-01-31T13:37:12.170Z,4.37
2023-01-31T13:39:43.055Z,4.16
2023-01-31T13:42:14.628Z,4.07
2023-01-31T13:44:42.612Z,3.91
2023-01-31T13:47:18.715Z,3.72
2023-01-31T13:49:51.667Z,3.67
2023-01-31T13:52:25.371Z,3.64
2023-01-31T13:54:57.543Z,3.68
2023-01-31T13:57:28.533Z,3.56
2023-01-31T14:00:03.283Z,3.48
2023-01-31T14:02:32.525Z,3.46
2023-01-31T14:05:06.780Z,3.53
2023-01-31T14:07:34.551Z,3.44
2023-01-31T14:10:37.683Z,3.42
2023-01-31T14:13:26.871Z,3.44
2023-01-31T14:15:56.262Z,3.45
2023-01-31T14:18:52.391Z,3.41
2023-01-31T14:21:49.391Z,3.41
2023-01-31T14:24:42.061Z,3.38
2023-01-31T14:27:19.263Z,3.32
2023-01-31T14:29:49.162Z,3.27
2023-01-31T14:32:19.563Z,3.33
2023-01-31T14:34:51.558Z,3.39
2023-01-31T14:37:29.597Z,3.37
2023-01-31T14:40:16.258Z,3.45
2023-01-31T14:43:15.763Z,3.36
2023-01-31T14:46:10.268Z,3.44
2023-01-31T14:49:06.018Z,3.36
2023-01-31T14:51:47.973Z,3.32
2023-01-31T14:54:47.581Z,3.32
2023-01-31T14:57:19.159Z,3.35
2023-01-31T14:59:55.469Z,3.37
2023-01-31T15:02:50.121Z,3.34
2023-01-31T15:05:20.636Z,3.30
2023-01-31T15:08:06.515Z,3.24
2023-01-31T15:10:58.079Z,3.27
2023-01-31T15:13:42.618Z,3.25
2023-01-31T15:16:18.699Z,3.20
2023-01-31T15:18:49.961Z,3.25
2023-01-31T15:21:24.711Z,3.24
2023-01-31T15:23:55.374Z,3.24
2023-01-31T15:26:26.958Z,3.22
2023-01-31T15:28:55.425Z,3.25
2023-01-31T15:31:29.283Z,3.23
2023-01-31T15:34:02.651Z,3.23
2023-01-31T15:36:34.756Z,3.16
2023-01-31T15:39:16.366Z,3.14
2023-01-31T15:41:45.155Z,3.10
2023-01-31T15:44:17.430Z,3.12
2023-01-31T15:46:46.449Z,3.15
2023-01-31T15:49:39.179Z,3.21
2023-01-31T15:52:16.263Z,3.21
2023-01-31T15:54:56.411Z,3.19
2023-01-31T15:57:27.462Z,3.23
2023-01-31T15:59:57.006Z,3.25
2023-01-31T16:02:28.952Z,3.26
2023-01-31T16:04:57.821Z,3.22
2023-01-31T16:07:29.242Z,3.21
2023-01-31T16:10:02.966Z,3.15
2023-01-31T16:12:33.074Z,3.18
2023-01-31T16:15:05.499Z,3.12
2023-01-31T16:17:33.999Z,3.14
2023-01-31T16:20:01.764Z,3.22
2023-01-31T16:22:32.035Z,3.17
2023-01-31T16:25:02.919Z,3.12
2023-01-31T16:27:34.067Z,3.14
2023-01-31T16:30:02.107Z,3.19
2023-01-31T16:32:32.091Z,3.21
2023-01-31T16:35:02.175Z,3.16
2023-01-31T16:37:33.361Z,3.14
2023-01-31T16:40:07.388Z,3.19
2023-01-31T16:42:38.677Z,3.20
2023-01-31T16:45:29.092Z,3.14
2023-01-31T16:48:10.026Z,3.15
2023-01-31T16:50:43.301Z,3.24
2023-01-31T16:53:24.458Z,3.20
2023-01-31T16:56:19.677Z,3.13
2023-01-31T16:58:50.828Z,3.09
2023-01-31T17:01:21.626Z,3.16
2023-01-31T17:04:15.363Z,3.12
2023-01-31T17:06:43.754Z,3.18
2023-01-31T17:09:17.151Z,3.19
2023-01-31T17:11:47.058Z,3.19
2023-01-31T17:14:14.919Z,3.18
2023-01-31T17:16:42.668Z,3.23
2023-01-31T17:19:11.467Z,3.25
2023-01-31T17:21:41.682Z,3.29
2023-01-31T17:24:14.423Z,3.23
2023-01-31T17:26:42.556Z,3.27
2023-01-31T17:29:12.096Z,3.32
2023-01-31T17:31:40.979Z,3.34
2023-01-31T17:34:13.706Z,3.31
2023-01-31T17:36:41.574Z,3.32
2023-01-31T17:39:09.318Z,3.32
2023-01-31T17:41:39.173Z,3.37
2023-01-31T17:44:07.196Z,3.38
2023-01-31T17:46:37.102Z,3.40
2023-01-31T17:49:04.907Z,3.34
2023-01-31T17:51:32.721Z,3.39
2023-01-31T17:54:00.522Z,3.43
2023-01-31T17:56:28.359Z,3.38
2023-01-31T17:58:56.076Z,3.40
2023-01-31T18:01:23.846Z,3.39
2023-01-31T18:03:52.972Z,3.35
2023-01-31T18:06:20.686Z,3.37
2023-01-31T18:08:48.677Z,3.33
2023-01-31T18:11:17.757Z,3.35
2023-01-31T18:13:45.744Z,3.34
2023-01-31T18:16:18.371Z,3.35
2023-01-31T18:18:46.178Z,3.35
2023-01-31T18:21:17.417Z,3.38
2023-01-31T18:23:45.237Z,3.44
2023-01-31T18:26:13.321Z,3.53
2023-01-31T18:28:41.125Z,3.51
2023-01-31T18:31:13.778Z,3.47
2023-01-31T18:33:43.593Z,3.43
2023-01-31T18:36:14.338Z,3.44
2023-01-31T18:38:44.631Z,3.42
2023-01-31T18:41:15.299Z,3.47
2023-01-31T18:43:43.870Z,3.57
2023-01-31T18:46:12.450Z,3.56
2023-01-31T18:48:41.986Z,3.53
2023-01-31T18:51:13.322Z,3.53
2023-01-31T18:53:44.955Z,3.54
2023-01-31T18:56:14.669Z,3.60
2023-01-31T18:58:44.524Z,3.64
2023-01-31T19:01:14.088Z,3.56
2023-01-31T19:03:42.793Z,3.58
2023-01-31T19:06:12.443Z,3.61
2023-01-31T19:08:40.498Z,3.60
2023-01-31T19:11:11.600Z,3.58
2023-01-31T19:13:39.522Z,3.59
2023-01-31T19:16:09.390Z,3.60
2023-01-31T19:18:37.734Z,3.57
2023-01-31T19:21:15.559Z,3.54
2023-01-31T19:23:43.511Z,3.51
2023-01-31T19:26:13.599Z,3.50
2023-01-31T19:28:41.492Z,3.52
2023-01-31T19:31:11.456Z,3.48
2023-01-31T19:33:40.036Z,3.51
2023-01-31T19:36:11.959Z,3.53
2023-01-31T19:38:40.105Z,3.55
2023-01-31T19:41:09.038Z,3.47
2023-01-31T19:43:38.250Z,3.55
2023-01-31T19:46:06.802Z,3.52
2023-01-31T19:48:34.914Z,3.54
2023-01-31T19:51:07.894Z,3.55
2023-01-31T19:53:35.984Z,3.60
2023-01-31T19:56:03.970Z,3.68
2023-01-31T19:58:32.142Z,3.69
2023-01-31T20:01:03.042Z,3.66
2023-01-31T20:03:31.167Z,3.67
2023-01-31T20:06:02.440Z,3.62
2023-01-31T20:08:30.971Z,3.64
2023-01-31T20:10:59.360Z,3.64
2023-01-31T20:13:27.254Z,3.57
2023-01-31T20:15:59.321Z,3.58
2023-01-31T20:18:29.150Z,3.63
2023-01-31T20:20:56.899Z,3.64
2023-01-31T20:23:24.883Z,3.62
2023-01-31T20:25:53.666Z,3.58
2023-01-31T20:28:22.157Z,3.54
2023-01-31T20:30:50.062Z,3.53
2023-01-31T20:33:18.545Z,3.52
2023-01-31T20:35:48.379Z,3.46
2023-01-31T20:38:18.232Z,3.45
2023-01-31T20:40:51.304Z,3.44
2023-01-31T20:43:19.424Z,3.46
2023-01-31T20:45:47.444Z,3.45
2023-01-31T20:48:15.393Z,3.41
2023-01-31T20:50:43.161Z,3.43
2023-01-31T20:53:18.001Z,3.39
2023-01-31T20:55:47.190Z,3.45
2023-01-31T20:58:15.017Z,3.43
2023-01-31T21:00:42.752Z,3.49
2023-01-31T21:03:10.523Z,3.49
2023-01-31T21:05:39.015Z,3.49
2023-01-31T21:08:07.307Z,3.42
2023-01-31T21:10:36.472Z,3.47
2023-01-31T21:13:04.215Z,3.43
2023-01-31T21:15:32.869Z,3.41
2023-01-31T21:18:00.628Z,3.37
2023-01-31T21:20:28.418Z,3.29
2023-01-31T21:22:56.156Z,3.29
2023-01-31T21:25:23.839Z,3.26
2023-01-31T21:27:52.934Z,3.19
2023-01-31T21:30:21.180Z,3.15
2023-01-31T21:32:49.074Z,3.20
2023-01-31T21:35:17.056Z,3.20
2023-01-31T21:37:44.844Z,3.17
2023-01-31T21:40:13.724Z,3.17
2023-01-31T21:42:42.981Z,3.15
2023-01-31T21:45:12.620Z,3.12
2023-01-31T21:48:00.712Z,3.12
2023-01-31T21:50:28.558Z,3.17
2023-01-31T21:52:56.349Z,3.13
2023-01-31T21:55:24.098Z,3.20
2023-01-31T21:57:51.838Z,3.18
2023-01-31T22:00:22.116Z,3.16
2023-01-31T22:02:52.973Z,3.20
2023-01-31T22:05:20.724Z,3.19
2023-01-31T22:07:48.509Z,3.24
2023-01-31T22:10:16.379Z,3.24
2023-01-31T22:12:44.078Z,3.28
2023-01-31T22:15:11.948Z,3.24
2023-01-31T22:17:41.067Z,3.13
2023-01-31T22:20:11.843Z,3.10
2023-01-31T22:22:39.613Z,3.09
2023-01-31T22:25:07.946Z,3.00
2023-01-31T22:27:35.691Z,3.01
2023-01-31T22:30:15.130Z,3.03
2023-01-31T22:32:45.094Z,3.04
2023-01-31T22:35:12.844Z,3.02
2023-01-31T22:37:41.897Z,3.02
2023-01-31T22:40:11.197Z,2.98
2023-01-31T22:42:38.923Z,3.01
2023-01-31T22:45:07.560Z,3.05
2023-01-31T22:47:35.308Z,3.03
2023-01-31T22:50:08.362Z,3.05
2023-01-31T22:52:36.099Z,3.11
2023-01-31T23:01:34.662Z,3.03
2023-01-31T23:04:03.988Z,3.10
2023-01-31T23:06:31.889Z,3.18
2023-01-31T23:08:59.824Z,3.21
2023-01-31T23:11:27.839Z,3.25
2023-01-31T23:13:55.849Z,3.27
2023-01-31T23:16:45.810Z,3.30
2023-01-31T23:19:16.061Z,3.26
2023-01-31T23:21:44.635Z,3.26
2023-01-31T23:24:14.408Z,3.28
2023-01-31T23:26:42.432Z,3.30
2023-01-31T23:29:10.250Z,3.32
2023-01-31T23:31:38.555Z,3.36
2023-01-31T23:34:07.848Z,3.34
2023-01-31T23:36:36.949Z,3.33
2023-01-31T23:39:05.074Z,3.34
2023-01-31T23:41:32.878Z,3.30
2023-01-31T23:44:04.151Z,3.30
2023-01-31T23:46:32.309Z,3.30
2023-01-31T23:49:02.269Z,3.30
2023-01-31T23:51:31.336Z,3.37
2023-01-31T23:54:00.830Z,3.32
2023-01-31T23:56:28.626Z,3.32
2023-01-31T23:58:56.509Z,3.36
